»·PEaware :: N441QX KSBA-KCRQ

N441QX :: KSBA-KCRQ

FLIGHT INFORMATION

Flight Status: Arrived
Operator: Privately registered:
United States
More flights under this callsign
Pilot: Roland W. (25691)
Aircraft: DEHAVILLAND DASH 8 400
(DH8D)
More flights by this aircraft type
Origin: KSBA Santa Barbara Mun
United States
Destination: KCRQ McClellan-Palomar
United States
More flights between these airports :: More routes between these airports
Route: +KWANG VTU V208 SXC V208 OCN
File this flight plan on PilotEdge
Remarks:
Altitude:
(Current/Filed)
9,000ft
Speed:
(Current/Filed)
286kts
Departed: 14-Sep-19 09:57 PM
Arrived: 14-Sep-19 10:45 PM
Distance/Time
Traveled:
150nm/0:48
Distance/Time
To Go:
Arrived

Flight Plot

Page will automatically refresh every two minutes.


Map Options




Map Legend


Flown Route
Filed Route
Departure Airport
Arrival Airport
Navaid (VOR, NDB)
Fix

Horizontal Profiles

Position Reports

Time Latitude Longitude Heading Altitude Ground
Speed
14-Sep-19 21:43 34.422453 -119.836539 89 17ft 0kts
14-Sep-19 21:44 34.422453 -119.836539 89 17ft 0kts
14-Sep-19 21:45 34.422453 -119.836539 89 17ft 0kts
14-Sep-19 21:46 34.422453 -119.836539 89 17ft 0kts
14-Sep-19 21:46 34.422453 -119.836539 89 17ft 0kts
14-Sep-19 21:48 34.422453 -119.836539 89 17ft 0kts
14-Sep-19 21:49 34.422453 -119.836539 89 17ft 0kts
14-Sep-19 21:49 34.422453 -119.836539 89 17ft 0kts
14-Sep-19 21:50 34.422453 -119.836539 89 17ft 0kts
14-Sep-19 21:51 34.422549 -119.836370 328 17ft 0kts
14-Sep-19 21:53 34.424148 -119.837562 347 17ft 17kts
14-Sep-19 21:53 34.426543 -119.838279 345 17ft 9kts
14-Sep-19 21:54 34.426829 -119.834628 73 17ft 0kts
14-Sep-19 21:55 34.427579 -119.834572 306 17ft 10kts
14-Sep-19 21:56 34.427177 -119.859050 260 455ft 140kts
14-Sep-19 21:57 34.424065 -119.909637 268 2796ft 168kts
14-Sep-19 21:58 34.398386 -119.957519 195 4794ft 219kts
14-Sep-19 21:59 34.338643 -119.974993 182 7021ft 229kts
14-Sep-19 22:00 34.303252 -119.919422 102 8837ft 241kts
14-Sep-19 22:01 34.291646 -119.864556 102 10095ft 244kts
14-Sep-19 22:02 34.273703 -119.779408 103 10280ft 287kts
14-Sep-19 22:03 34.253851 -119.686504 103 10831ft 291kts
14-Sep-19 22:04 34.233280 -119.590732 104 11011ft 298kts
14-Sep-19 22:05 34.212308 -119.493601 104 10988ft 308kts
14-Sep-19 22:06 34.194534 -119.411616 104 11004ft 307kts
14-Sep-19 22:07 34.173350 -119.314486 104 11007ft 304kts
14-Sep-19 22:08 34.151772 -119.216052 104 11009ft 310kts
14-Sep-19 22:09 34.135015 -119.139754 104 11009ft 317kts
14-Sep-19 22:10 34.091662 -119.055272 153 11008ft 319kts
14-Sep-19 22:11 34.005011 -119.037316 173 11010ft 320kts
14-Sep-19 22:12 33.918619 -119.028924 173 11011ft 319kts
14-Sep-19 22:13 33.831355 -119.019782 173 11011ft 319kts
14-Sep-19 22:14 33.759025 -118.969356 131 11022ft 316kts
14-Sep-19 22:15 33.719528 -118.913483 128 11036ft 316kts
14-Sep-19 22:16 33.664851 -118.833971 129 11043ft 316kts
14-Sep-19 22:17 33.609672 -118.754826 129 11041ft 316kts
14-Sep-19 22:18 33.555594 -118.677366 129 11039ft 285kts
14-Sep-19 22:19 33.508130 -118.609519 129 11068ft 274kts
14-Sep-19 22:20 33.460671 -118.541791 129 11073ft 259kts
14-Sep-19 22:21 33.417612 -118.480421 130 11066ft 236kts
14-Sep-19 22:22 33.377810 -118.418259 112 11080ft 261kts
14-Sep-19 22:23 33.363641 -118.333848 99 11066ft 280kts
14-Sep-19 22:24 33.352497 -118.247425 99 11059ft 259kts
14-Sep-19 22:25 33.341841 -118.166127 99 11055ft 250kts
14-Sep-19 22:26 33.330890 -118.083710 99 11040ft 259kts
14-Sep-19 22:27 33.319591 -117.998946 100 10978ft 257kts
14-Sep-19 22:28 33.308729 -117.917382 100 9030ft 258kts
14-Sep-19 22:29 33.297658 -117.835479 100 6736ft 256kts
14-Sep-19 22:30 33.286395 -117.753110 98 4571ft 257kts
14-Sep-19 22:31 33.274250 -117.670655 100 4415ft 250kts
14-Sep-19 22:32 33.261693 -117.588245 99 3544ft 262kts
14-Sep-19 22:33 33.251042 -117.506602 97 2826ft 261kts
14-Sep-19 22:34 33.239490 -117.425265 113 2217ft 247kts
14-Sep-19 22:35 33.198514 -117.365741 133 1542ft 204kts
14-Sep-19 22:36 33.172950 -117.334029 123 159ft 187kts
14-Sep-19 22:37 33.151569 -117.289915 120 1659ft 130kts
14-Sep-19 22:38 33.143155 -117.238980 157 1260ft 154kts
14-Sep-19 22:39 33.128652 -117.276909 260 881ft 124kts
14-Sep-19 22:40 33.130398 -117.317339 335 1295ft 117kts
14-Sep-19 22:41 33.145744 -117.286332 84 1022ft 120kts
14-Sep-19 22:42 33.138596 -117.276615 182 399ft 119kts
14-Sep-19 22:43 33.135646 -117.277370 342 1699ft 78kts
14-Sep-19 22:44 33.136758 -117.278623 143 279ft 0kts
14-Sep-19 22:45 33.136889 -117.278323 54 242ft 0kts
14-Sep-19 22:46 33.129435 -117.272867 259 304ft 0kts
14-Sep-19 22:47 33.129435 -117.272868 259 303ft 0kts
14-Sep-19 22:48 33.129372 -117.274798 267 476ft 56kts

Navigation Log

Ident Type
Flight plan parsing failed, navigation log unavailable